sensor_id;sensor_type;location;lat;lon;timestamp;pressure;altitude;pressure_sealevel;temperature;humidity
74079;BME280;62437;51.544;-3.276;2023-05-01T00:02:01;101257.83;;;9.60;67.78
74079;BME280;62437;51.544;-3.276;2023-05-01T00:04:26;101253.93;;;9.31;68.43
74079;BME280;62437;51.544;-3.276;2023-05-01T00:06:52;101241.24;;;11.16;61.76
74079;BME280;62437;51.544;-3.276;2023-05-01T00:09:18;101239.80;;;10.74;64.52
74079;BME280;62437;51.544;-3.276;2023-05-01T00:11:43;101246.59;;;9.55;68.92
74079;BME280;62437;51.544;-3.276;2023-05-01T00:14:09;101239.81;;;10.07;67.10
74079;BME280;62437;51.544;-3.276;2023-05-01T00:16:34;101240.22;;;10.03;67.41
74079;BME280;62437;51.544;-3.276;2023-05-01T00:19:00;101238.26;;;8.45;70.97
74079;BME280;62437;51.544;-3.276;2023-05-01T00:21:26;101234.88;;;8.84;70.84
74079;BME280;62437;51.544;-3.276;2023-05-01T00:23:51;101241.89;;;9.44;70.07
74079;BME280;62437;51.544;-3.276;2023-05-01T00:26:18;101237.94;;;9.34;70.08
74079;BME280;62437;51.544;-3.276;2023-05-01T00:28:43;101231.39;;;9.33;71.12
74079;BME280;62437;51.544;-3.276;2023-05-01T00:31:08;101232.61;;;9.04;71.45
74079;BME280;62437;51.544;-3.276;2023-05-01T00:33:34;101235.08;;;9.58;70.12
74079;BME280;62437;51.544;-3.276;2023-05-01T00:36:00;101232.17;;;10.35;68.24
74079;BME280;62437;51.544;-3.276;2023-05-01T00:38:25;101234.82;;;9.58;69.53
74079;BME280;62437;51.544;-3.276;2023-05-01T00:40:52;101232.12;;;9.75;70.62
74079;BME280;62437;51.544;-3.276;2023-05-01T00:43:17;101220.70;;;11.31;62.90
74079;BME280;62437;51.544;-3.276;2023-05-01T00:45:44;101221.61;;;10.09;66.96
74079;BME280;62437;51.544;-3.276;2023-05-01T00:48:08;101219.49;;;9.61;69.13
74079;BME280;62437;51.544;-3.276;2023-05-01T00:50:34;101211.58;;;10.52;66.68
74079;BME280;62437;51.544;-3.276;2023-05-01T00:52:59;101207.83;;;10.17;66.42
74079;BME280;62437;51.544;-3.276;2023-05-01T00:55:25;101211.16;;;10.01;67.23
74079;BME280;62437;51.544;-3.276;2023-05-01T00:57:50;101205.67;;;10.23;66.63
74079;BME280;62437;51.544;-3.276;2023-05-01T01:00:16;101210.97;;;9.55;68.58
74079;BME280;62437;51.544;-3.276;2023-05-01T01:02:42;101203.33;;;12.05;59.38
74079;BME280;62437;51.544;-3.276;2023-05-01T01:05:08;101203.87;;;12.46;60.31
74079;BME280;62437;51.544;-3.276;2023-05-01T01:07:40;101207.25;;;9.94;66.55
74079;BME280;62437;51.544;-3.276;2023-05-01T01:10:07;101205.44;;;10.34;65.90
74079;BME280;62437;51.544;-3.276;2023-05-01T01:12:28;101211.18;;;9.70;67.46
74079;BME280;62437;51.544;-3.276;2023-05-01T01:14:58;101207.70;;;9.61;68.90
74079;BME280;62437;51.544;-3.276;2023-05-01T01:17:23;101203.86;;;9.72;67.98
74079;BME280;62437;51.544;-3.276;2023-05-01T01:22:10;101191.90;;;10.01;66.91
74079;BME280;62437;51.544;-3.276;2023-05-01T01:27:12;101184.96;;;9.71;67.20
74079;BME280;62437;51.544;-3.276;2023-05-01T01:31:59;101184.47;;;9.17;69.80
74079;BME280;62437;51.544;-3.276;2023-05-01T01:34:19;101174.70;;;10.11;68.15
74079;BME280;62437;51.544;-3.276;2023-05-01T01:36:46;101178.21;;;9.57;68.84
74079;BME280;62437;51.544;-3.276;2023-05-01T01:39:12;101164.46;;;12.18;60.30
74079;BME280;62437;51.544;-3.276;2023-05-01T01:41:33;101163.85;;;11.36;63.97
74079;BME280;62437;51.544;-3.276;2023-05-01T01:44:02;101160.78;;;10.79;64.48
74079;BME280;62437;51.544;-3.276;2023-05-01T01:46:25;101154.41;;;9.90;67.24
74079;BME280;62437;51.544;-3.276;2023-05-01T01:48:49;101154.58;;;10.19;67.37
74079;BME280;62437;51.544;-3.276;2023-05-01T01:51:19;101156.58;;;9.75;68.49
74079;BME280;62437;51.544;-3.276;2023-05-01T01:53:47;101154.17;;;10.74;65.86
74079;BME280;62437;51.544;-3.276;2023-05-01T01:56:07;101153.63;;;10.76;66.01
74079;BME280;62437;51.544;-3.276;2023-05-01T01:58:34;101152.17;;;10.09;67.98
74079;BME280;62437;51.544;-3.276;2023-05-01T02:00:59;101152.51;;;9.28;68.81
74079;BME280;62437;51.544;-3.276;2023-05-01T02:03:23;101149.22;;;11.75;60.05
74079;BME280;62437;51.544;-3.276;2023-05-01T02:05:53;101145.78;;;11.27;62.79
74079;BME280;62437;51.544;-3.276;2023-05-01T02:08:15;101140.64;;;11.41;62.46
74079;BME280;62437;51.544;-3.276;2023-05-01T02:10:40;101144.35;;;10.43;65.20
74079;BME280;62437;51.544;-3.276;2023-05-01T02:13:08;101146.11;;;9.66;68.26
74079;BME280;62437;51.544;-3.276;2023-05-01T02:15:33;101135.47;;;11.20;63.15
74079;BME280;62437;51.544;-3.276;2023-05-01T02:18:00;101132.66;;;9.72;67.20
74079;BME280;62437;51.544;-3.276;2023-05-01T02:20:22;101131.96;;;13.11;54.95
74079;BME280;62437;51.544;-3.276;2023-05-01T02:22:52;101135.45;;;10.13;66.37
74079;BME280;62437;51.544;-3.276;2023-05-01T02:25:15;101134.58;;;10.84;64.47
74079;BME280;62437;51.544;-3.276;2023-05-01T02:27:45;101126.35;;;11.75;59.49
74079;BME280;62437;51.544;-3.276;2023-05-01T02:30:06;101130.18;;;12.80;55.52
74079;BME280;62437;51.544;-3.276;2023-05-01T02:32:31;101130.11;;;9.96;67.07
74079;BME280;62437;51.544;-3.276;2023-05-01T02:34:58;101123.53;;;12.38;58.59
74079;BME280;62437;51.544;-3.276;2023-05-01T02:37:22;101127.04;;;10.20;67.65
74079;BME280;62437;51.544;-3.276;2023-05-01T02:39:49;101118.86;;;12.21;57.61
74079;BME280;62437;51.544;-3.276;2023-05-01T02:42:14;101125.57;;;9.02;70.86
74079;BME280;62437;51.544;-3.276;2023-05-01T02:44:41;101115.93;;;12.51;57.49
74079;BME280;62437;51.544;-3.276;2023-05-01T02:47:06;101121.10;;;8.38;71.41
74079;BME280;62437;51.544;-3.276;2023-05-01T02:49:30;101111.32;;;9.99;68.29
74079;BME280;62437;51.544;-3.276;2023-05-01T02:51:56;101115.15;;;10.19;66.07
74079;BME280;62437;51.544;-3.276;2023-05-01T02:54:21;101113.42;;;10.47;64.45
74079;BME280;62437;51.544;-3.276;2023-05-01T02:56:47;101116.85;;;10.18;66.81
74079;BME280;62437;51.544;-3.276;2023-05-01T02:59:15;101108.41;;;12.50;59.05
74079;BME280;62437;51.544;-3.276;2023-05-01T03:01:38;101120.47;;;10.49;66.37
74079;BME280;62437;51.544;-3.276;2023-05-01T03:04:04;101116.53;;;9.88;67.66
74079;BME280;62437;51.544;-3.276;2023-05-01T03:06:30;101112.33;;;11.29;64.41
74079;BME280;62437;51.544;-3.276;2023-05-01T03:08:55;101110.66;;;11.42;63.08
74079;BME280;62437;51.544;-3.276;2023-05-01T03:11:23;101112.91;;;11.01;63.40
74079;BME280;62437;51.544;-3.276;2023-05-01T03:13:47;101110.56;;;11.67;61.92
74079;BME280;62437;51.544;-3.276;2023-05-01T03:16:12;101107.53;;;11.12;63.60
74079;BME280;62437;51.544;-3.276;2023-05-01T03:18:38;101106.22;;;11.50;59.98
74079;BME280;62437;51.544;-3.276;2023-05-01T03:21:04;101106.34;;;12.04;58.83
74079;BME280;62437;51.544;-3.276;2023-05-01T03:23:29;101110.92;;;11.04;63.21
74079;BME280;62437;51.544;-3.276;2023-05-01T03:25:55;101114.70;;;9.49;68.91
74079;BME280;62437;51.544;-3.276;2023-05-01T03:28:20;101116.20;;;8.40;71.39
74079;BME280;62437;51.544;-3.276;2023-05-01T03:30:46;101110.62;;;10.20;66.26
74079;BME280;62437;51.544;-3.276;2023-05-01T03:33:14;101109.67;;;10.43;64.95
74079;BME280;62437;51.544;-3.276;2023-05-01T03:35:38;101113.57;;;9.62;70.00
74079;BME280;62437;51.544;-3.276;2023-05-01T03:38:03;101117.75;;;8.01;74.53
74079;BME280;62437;51.544;-3.276;2023-05-01T03:40:29;101115.60;;;9.65;68.96
74079;BME280;62437;51.544;-3.276;2023-05-01T03:42:54;101118.57;;;8.28;73.66
74079;BME280;62437;51.544;-3.276;2023-05-01T03:45:20;101110.22;;;10.12;65.30
74079;BME280;62437;51.544;-3.276;2023-05-01T03:47:48;101116.90;;;8.67;71.31
74079;BME280;62437;51.544;-3.276;2023-05-01T03:50:11;101112.12;;;10.74;64.47
74079;BME280;62437;51.544;-3.276;2023-05-01T03:52:39;101115.28;;;9.04;70.57
74079;BME280;62437;51.544;-3.276;2023-05-01T03:55:03;101107.65;;;10.19;66.08
74079;BME280;62437;51.544;-3.276;2023-05-01T03:57:28;101114.27;;;8.53;72.92
74079;BME280;62437;51.544;-3.276;2023-05-01T03:59:54;101111.70;;;8.57;72.46
74079;BME280;62437;51.544;-3.276;2023-05-01T04:02:21;101106.70;;;10.91;62.49
74079;BME280;62437;51.544;-3.276;2023-05-01T04:04:45;101105.57;;;11.64;61.06
74079;BME280;62437;51.544;-3.276;2023-05-01T04:07:11;101099.98;;;11.78;60.07
74079;BME280;62437;51.544;-3.276;2023-05-01T04:09:36;101102.03;;;12.63;56.46
74079;BME280;62437;51.544;-3.276;2023-05-01T04:12:02;101105.33;;;11.92;60.85
74079;BME280;62437;51.544;-3.276;2023-05-01T04:14:28;101109.92;;;11.31;61.83
74079;BME280;62437;51.544;-3.276;2023-05-01T04:16:53;101105.98;;;12.45;58.28
74079;BME280;62437;51.544;-3.276;2023-05-01T04:19:20;101116.41;;;10.97;63.64
74079;BME280;62437;51.544;-3.276;2023-05-01T04:21:45;101116.89;;;11.69;60.59
74079;BME280;62437;51.544;-3.276;2023-05-01T04:24:10;101115.44;;;13.46;54.04
74079;BME280;62437;51.544;-3.276;2023-05-01T04:26:36;101114.82;;;9.80;66.07
74079;BME280;62437;51.544;-3.276;2023-05-01T04:29:02;101111.41;;;12.65;55.78
74079;BME280;62437;51.544;-3.276;2023-05-01T04:31:28;101114.38;;;11.53;58.91
74079;BME280;62437;51.544;-3.276;2023-05-01T04:33:53;101116.93;;;9.36;68.68
74079;BME280;62437;51.544;-3.276;2023-05-01T04:36:19;101113.41;;;11.74;60.18
74079;BME280;62437;51.544;-3.276;2023-05-01T04:38:44;101117.09;;;9.25;69.06
74079;BME280;62437;51.544;-3.276;2023-05-01T04:41:10;101112.91;;;9.86;66.70
74079;BME280;62437;51.544;-3.276;2023-05-01T04:43:35;101109.47;;;11.64;60.22
74079;BME280;62437;51.544;-3.276;2023-05-01T04:46:02;101105.61;;;11.32;59.94
74079;BME280;62437;51.544;-3.276;2023-05-01T04:48:27;101104.47;;;11.96;58.47
74079;BME280;62437;51.544;-3.276;2023-05-01T04:50:52;101109.70;;;10.68;63.26
74079;BME280;62437;51.544;-3.276;2023-05-01T04:53:18;101114.02;;;9.29;68.25
74079;BME280;62437;51.544;-3.276;2023-05-01T04:55:44;101104.08;;;10.55;63.98
74079;BME280;62437;51.544;-3.276;2023-05-01T04:58:09;101100.36;;;10.80;63.51
74079;BME280;62437;51.544;-3.276;2023-05-01T05:00:35;101104.39;;;9.13;68.35
74079;BME280;62437;51.544;-3.276;2023-05-01T05:03:01;101104.09;;;10.03;64.79
74079;BME280;62437;51.544;-3.276;2023-05-01T05:05:26;101099.97;;;9.77;67.53
74079;BME280;62437;51.544;-3.276;2023-05-01T05:07:52;101101.89;;;10.34;64.50
74079;BME280;62437;51.544;-3.276;2023-05-01T05:10:18;101110.10;;;9.80;66.65
74079;BME280;62437;51.544;-3.276;2023-05-01T05:12:43;101121.20;;;7.66;74.71
74079;BME280;62437;51.544;-3.276;2023-05-01T05:15:09;101124.60;;;8.39;72.27
74079;BME280;62437;51.544;-3.276;2023-05-01T05:17:35;101128.27;;;7.94;74.47
74079;BME280;62437;51.544;-3.276;2023-05-01T05:20:00;101130.07;;;7.84;75.07
74079;BME280;62437;51.544;-3.276;2023-05-01T05:22:26;101128.86;;;7.47;75.89
74079;BME280;62437;51.544;-3.276;2023-05-01T05:24:52;101122.12;;;8.35;73.45
74079;BME280;62437;51.544;-3.276;2023-05-01T05:27:17;101126.69;;;7.24;75.78
74079;BME280;62437;51.544;-3.276;2023-05-01T05:29:43;101126.85;;;9.66;68.68
74079;BME280;62437;51.544;-3.276;2023-05-01T05:32:09;101126.55;;;11.67;61.53
74079;BME280;62437;51.544;-3.276;2023-05-01T05:34:36;101130.28;;;9.55;67.42
74079;BME280;62437;51.544;-3.276;2023-05-01T05:37:00;101127.51;;;11.29;59.73
74079;BME280;62437;51.544;-3.276;2023-05-01T05:39:26;101130.57;;;10.21;65.05
74079;BME280;62437;51.544;-3.276;2023-05-01T05:41:52;101130.07;;;10.38;64.57
74079;BME280;62437;51.544;-3.276;2023-05-01T05:44:17;101128.09;;;9.57;68.35
74079;BME280;62437;51.544;-3.276;2023-05-01T05:46:43;101131.92;;;9.47;68.70
74079;BME280;62437;51.544;-3.276;2023-05-01T05:49:08;101130.34;;;8.00;73.46
74079;BME280;62437;51.544;-3.276;2023-05-01T05:51:34;101134.48;;;8.10;74.00
74079;BME280;62437;51.544;-3.276;2023-05-01T05:54:00;101140.65;;;9.09;71.07
74079;BME280;62437;51.544;-3.276;2023-05-01T05:56:25;101142.53;;;8.45;72.55
74079;BME280;62437;51.544;-3.276;2023-05-01T05:58:51;101145.89;;;8.77;72.27
74079;BME280;62437;51.544;-3.276;2023-05-01T06:01:17;101147.28;;;8.64;72.22
74079;BME280;62437;51.544;-3.276;2023-05-01T06:03:42;101148.58;;;8.10;74.90
74079;BME280;62437;51.544;-3.276;2023-05-01T06:06:08;101151.50;;;9.46;70.87
74079;BME280;62437;51.544;-3.276;2023-05-01T06:08:33;101152.46;;;10.05;68.56
74079;BME280;62437;51.544;-3.276;2023-05-01T06:10:59;101144.10;;;11.99;59.94
74079;BME280;62437;51.544;-3.276;2023-05-01T06:13:25;101148.53;;;11.58;61.66
74079;BME280;62437;51.544;-3.276;2023-05-01T06:15:51;101149.09;;;12.47;58.51
74079;BME280;62437;51.544;-3.276;2023-05-01T06:18:16;101157.44;;;11.46;62.94
74079;BME280;62437;51.544;-3.276;2023-05-01T06:20:42;101159.99;;;11.57;63.41
74079;BME280;62437;51.544;-3.276;2023-05-01T06:23:09;101153.99;;;12.28;59.51
74079;BME280;62437;51.544;-3.276;2023-05-01T06:25:34;101147.74;;;12.21;60.28
74079;BME280;62437;51.544;-3.276;2023-05-01T06:27:59;101145.58;;;12.35;59.43
74079;BME280;62437;51.544;-3.276;2023-05-01T06:30:24;101156.88;;;9.71;68.36
74079;BME280;62437;51.544;-3.276;2023-05-01T06:32:52;101156.12;;;10.64;68.54
74079;BME280;62437;51.544;-3.276;2023-05-01T06:35:17;101159.66;;;10.47;69.26
74079;BME280;62437;51.544;-3.276;2023-05-01T06:37:42;101155.91;;;12.52;60.35
74079;BME280;62437;51.544;-3.276;2023-05-01T06:40:08;101155.39;;;13.61;55.76
74079;BME280;62437;51.544;-3.276;2023-05-01T06:42:33;101160.99;;;11.02;66.72
74079;BME280;62437;51.544;-3.276;2023-05-01T06:44:58;101168.91;;;9.33;71.89
74079;BME280;62437;51.544;-3.276;2023-05-01T06:47:25;101165.46;;;10.99;68.27
74079;BME280;62437;51.544;-3.276;2023-05-01T06:49:49;101169.71;;;11.58;63.86
74079;BME280;62437;51.544;-3.276;2023-05-01T06:52:15;101164.31;;;12.71;60.48
74079;BME280;62437;51.544;-3.276;2023-05-01T06:54:41;101166.17;;;10.81;69.15
74079;BME280;62437;51.544;-3.276;2023-05-01T06:57:06;101170.91;;;11.06;66.95
74079;BME280;62437;51.544;-3.276;2023-05-01T06:59:32;101172.91;;;12.27;62.02
74079;BME280;62437;51.544;-3.276;2023-05-01T07:01:58;101176.54;;;12.84;59.32
74079;BME280;62437;51.544;-3.276;2023-05-01T07:04:23;101182.13;;;10.72;68.79
74079;BME280;62437;51.544;-3.276;2023-05-01T07:06:51;101176.93;;;11.74;65.95
74079;BME280;62437;51.544;-3.276;2023-05-01T07:09:14;101176.41;;;11.00;69.02
74079;BME280;62437;51.544;-3.276;2023-05-01T07:11:40;101168.97;;;12.38;63.55
74079;BME280;62437;51.544;-3.276;2023-05-01T07:14:08;101170.77;;;11.45;66.37
74079;BME280;62437;51.544;-3.276;2023-05-01T07:16:31;101168.38;;;12.87;62.08
74079;BME280;62437;51.544;-3.276;2023-05-01T07:18:57;101171.25;;;11.80;65.03
74079;BME280;62437;51.544;-3.276;2023-05-01T07:21:23;101173.37;;;13.27;62.34
74079;BME280;62437;51.544;-3.276;2023-05-01T07:23:48;101175.86;;;13.55;57.81
74079;BME280;62437;51.544;-3.276;2023-05-01T07:26:14;101187.61;;;12.05;64.33
74079;BME280;62437;51.544;-3.276;2023-05-01T07:28:39;101189.81;;;10.92;67.46
74079;BME280;62437;51.544;-3.276;2023-05-01T07:31:05;101187.56;;;12.35;64.77
74079;BME280;62437;51.544;-3.276;2023-05-01T07:33:31;101191.30;;;11.95;67.21
74079;BME280;62437;51.544;-3.276;2023-05-01T07:35:58;101189.48;;;10.39;66.75
74079;BME280;62437;51.544;-3.276;2023-05-01T07:38:22;101201.02;;;9.35;71.00
74079;BME280;62437;51.544;-3.276;2023-05-01T07:40:48;101200.07;;;9.04;70.92
74079;BME280;62437;51.544;-3.276;2023-05-01T07:43:14;101207.86;;;9.84;70.08
74079;BME280;62437;51.544;-3.276;2023-05-01T07:45:39;101210.34;;;10.06;71.15
74079;BME280;62437;51.544;-3.276;2023-05-01T07:48:05;101212.50;;;9.81;70.70
74079;BME280;62437;51.544;-3.276;2023-05-01T07:50:30;101214.73;;;9.87;71.75
74079;BME280;62437;51.544;-3.276;2023-05-01T07:52:57;101207.24;;;11.05;68.97
74079;BME280;62437;51.544;-3.276;2023-05-01T07:55:21;101213.26;;;10.11;69.30
74079;BME280;62437;51.544;-3.276;2023-05-01T07:57:47;101216.41;;;10.08;69.74
74079;BME280;62437;51.544;-3.276;2023-05-01T08:00:14;101210.92;;;9.26;71.22
74079;BME280;62437;51.544;-3.276;2023-05-01T08:02:38;101209.66;;;10.72;69.25
74079;BME280;62437;51.544;-3.276;2023-05-01T08:05:04;101221.52;;;9.73;69.36
74079;BME280;62437;51.544;-3.276;2023-05-01T08:07:29;101226.54;;;9.80;70.77
74079;BME280;62437;51.544;-3.276;2023-05-01T08:09:55;101226.46;;;9.92;67.36
74079;BME280;62437;51.544;-3.276;2023-05-01T08:12:21;101227.43;;;9.04;69.66
74079;BME280;62437;51.544;-3.276;2023-05-01T08:14:48;101230.39;;;9.68;69.97
74079;BME280;62437;51.544;-3.276;2023-05-01T08:17:12;101232.20;;;9.87;68.76
74079;BME280;62437;51.544;-3.276;2023-05-01T08:19:37;101231.67;;;10.00;69.27
74079;BME280;62437;51.544;-3.276;2023-05-01T08:22:03;101228.96;;;9.86;67.12
74079;BME280;62437;51.544;-3.276;2023-05-01T08:24:29;101224.86;;;9.92;68.81
74079;BME280;62437;51.544;-3.276;2023-05-01T08:26:54;101226.43;;;10.16;69.45
74079;BME280;62437;51.544;-3.276;2023-05-01T08:29:20;101225.28;;;11.22;68.17
74079;BME280;62437;51.544;-3.276;2023-05-01T08:31:46;101226.73;;;11.42;70.05
74079;BME280;62437;51.544;-3.276;2023-05-01T08:34:11;101222.98;;;10.45;71.93
74079;BME280;62437;51.544;-3.276;2023-05-01T08:36:37;101222.93;;;11.72;68.67
74079;BME280;62437;51.544;-3.276;2023-05-01T08:39:03;101228.22;;;10.61;71.23
74079;BME280;62437;51.544;-3.276;2023-05-01T08:41:29;101231.45;;;10.78;69.82
74079;BME280;62437;51.544;-3.276;2023-05-01T08:43:56;101238.98;;;9.61;70.73
74079;BME280;62437;51.544;-3.276;2023-05-01T08:46:28;101245.44;;;9.95;67.66
74079;BME280;62437;51.544;-3.276;2023-05-01T08:48:46;101243.42;;;9.58;69.99
74079;BME280;62437;51.544;-3.276;2023-05-01T08:51:11;101244.57;;;10.47;68.21
74079;BME280;62437;51.544;-3.276;2023-05-01T08:53:38;101244.85;;;12.54;65.77
74079;BME280;62437;51.544;-3.276;2023-05-01T08:56:05;101251.16;;;11.97;64.64
74079;BME280;62437;51.544;-3.276;2023-05-01T08:58:28;101249.48;;;11.65;65.34
74079;BME280;62437;51.544;-3.276;2023-05-01T09:00:53;101262.65;;;10.24;63.78
74079;BME280;62437;51.544;-3.276;2023-05-01T09:03:19;101268.92;;;10.16;66.59
74079;BME280;62437;51.544;-3.276;2023-05-01T09:05:45;101264.93;;;10.71;70.24
74079;BME280;62437;51.544;-3.276;2023-05-01T09:08:10;101264.66;;;11.02;67.05
74079;BME280;62437;51.544;-3.276;2023-05-01T09:10:41;101261.54;;;10.61;66.71
74079;BME280;62437;51.544;-3.276;2023-05-01T09:13:03;101260.03;;;10.57;66.46
74079;BME280;62437;51.544;-3.276;2023-05-01T09:15:28;101258.66;;;10.83;65.35
74079;BME280;62437;51.544;-3.276;2023-05-01T09:17:53;101267.83;;;10.45;65.05
74079;BME280;62437;51.544;-3.276;2023-05-01T09:20:19;101272.62;;;10.68;66.90
74079;BME280;62437;51.544;-3.276;2023-05-01T09:22:44;101266.32;;;11.54;66.42
74079;BME280;62437;51.544;-3.276;2023-05-01T09:25:09;101270.00;;;10.99;63.45
74079;BME280;62437;51.544;-3.276;2023-05-01T09:27:36;101273.70;;;10.33;65.69
74079;BME280;62437;51.544;-3.276;2023-05-01T09:30:00;101271.92;;;11.68;65.47
74079;BME280;62437;51.544;-3.276;2023-05-01T09:32:26;101277.17;;;10.71;64.48
74079;BME280;62437;51.544;-3.276;2023-05-01T09:34:52;101273.83;;;11.11;64.14
74079;BME280;62437;51.544;-3.276;2023-05-01T09:37:26;101277.53;;;10.92;66.50
74079;BME280;62437;51.544;-3.276;2023-05-01T09:39:43;101275.09;;;11.06;66.26
74079;BME280;62437;51.544;-3.276;2023-05-01T09:42:08;101283.50;;;11.34;63.33
74079;BME280;62437;51.544;-3.276;2023-05-01T09:44:39;101287.57;;;11.18;64.86
74079;BME280;62437;51.544;-3.276;2023-05-01T09:47:01;101285.00;;;11.11;62.71
74079;BME280;62437;51.544;-3.276;2023-05-01T09:54:19;101279.14;;;12.44;60.65
74079;BME280;62437;51.544;-3.276;2023-05-01T09:56:47;101281.27;;;12.06;59.90
74079;BME280;62437;51.544;-3.276;2023-05-01T09:59:15;101274.88;;;12.85;61.02
74079;BME280;62437;51.544;-3.276;2023-05-01T10:01:39;101272.86;;;13.65;60.10
74079;BME280;62437;51.544;-3.276;2023-05-01T10:03:59;101278.13;;;11.49;59.99
74079;BME280;62437;51.544;-3.276;2023-05-01T10:06:26;101278.23;;;12.86;63.78
74079;BME280;62437;51.544;-3.276;2023-05-01T10:08:50;101283.03;;;11.87;60.08
74079;BME280;62437;51.544;-3.276;2023-05-01T10:11:15;101278.07;;;12.74;66.32
74079;BME280;62437;51.544;-3.276;2023-05-01T10:13:41;101276.96;;;12.15;61.06
74079;BME280;62437;51.544;-3.276;2023-05-01T10:18:33;101295.86;;;11.02;58.87
74079;BME280;62437;51.544;-3.276;2023-05-01T10:20:58;101288.88;;;11.58;58.93
74079;BME280;62437;51.544;-3.276;2023-05-01T10:23:24;101300.29;;;12.00;60.49
74079;BME280;62437;51.544;-3.276;2023-05-01T10:25:53;101318.46;;;11.67;59.80
74079;BME280;62437;51.544;-3.276;2023-05-01T10:28:16;101304.97;;;11.15;59.28
74079;BME280;62437;51.544;-3.276;2023-05-01T10:30:41;101300.26;;;12.03;64.19
74079;BME280;62437;51.544;-3.276;2023-05-01T10:33:06;101301.30;;;12.85;58.39
74079;BME280;62437;51.544;-3.276;2023-05-01T10:35:36;101297.09;;;13.33;63.45
74079;BME280;62437;51.544;-3.276;2023-05-01T10:38:00;101297.77;;;12.47;55.68
74079;BME280;62437;51.544;-3.276;2023-05-01T10:45:29;101302.56;;;12.02;60.88
74079;BME280;62437;51.544;-3.276;2023-05-01T10:47:45;101301.72;;;11.98;55.46
74079;BME280;62437;51.544;-3.276;2023-05-01T10:50:07;101297.51;;;12.18;54.19
74079;BME280;62437;51.544;-3.276;2023-05-01T11:02:20;101312.29;;;12.21;61.56
74079;BME280;62437;51.544;-3.276;2023-05-01T11:04:48;101305.22;;;12.62;56.89
74079;BME280;62437;51.544;-3.276;2023-05-01T11:07:16;101304.15;;;12.87;55.58
74079;BME280;62437;51.544;-3.276;2023-05-01T11:09:37;101301.21;;;13.75;54.16
74079;BME280;62437;51.544;-3.276;2023-05-01T11:11:55;101299.88;;;14.14;54.91
74079;BME280;62437;51.544;-3.276;2023-05-01T11:14:21;101308.86;;;12.92;52.79
74079;BME280;62437;51.544;-3.276;2023-05-01T11:16:47;101298.86;;;13.06;54.87
74079;BME280;62437;51.544;-3.276;2023-05-01T11:21:38;101305.55;;;13.08;55.00
74079;BME280;62437;51.544;-3.276;2023-05-01T11:24:05;101304.61;;;13.00;54.44
74079;BME280;62437;51.544;-3.276;2023-05-01T11:26:29;101307.14;;;12.96;54.66
74079;BME280;62437;51.544;-3.276;2023-05-01T11:28:57;101308.91;;;12.95;52.78
74079;BME280;62437;51.544;-3.276;2023-05-01T11:31:21;101310.26;;;12.66;57.72
74079;BME280;62437;51.544;-3.276;2023-05-01T11:33:46;101316.55;;;12.69;55.07
74079;BME280;62437;51.544;-3.276;2023-05-01T11:36:13;101314.74;;;12.74;55.80
74079;BME280;62437;51.544;-3.276;2023-05-01T11:38:37;101315.97;;;12.57;53.31
74079;BME280;62437;51.544;-3.276;2023-05-01T11:41:04;101318.51;;;12.38;56.80
74079;BME280;62437;51.544;-3.276;2023-05-01T11:43:30;101322.70;;;12.26;53.93
74079;BME280;62437;51.544;-3.276;2023-05-01T11:45:54;101323.29;;;12.56;53.51
74079;BME280;62437;51.544;-3.276;2023-05-01T11:48:20;101322.43;;;12.58;52.52
74079;BME280;62437;51.544;-3.276;2023-05-01T11:50:45;101322.45;;;12.76;55.04
74079;BME280;62437;51.544;-3.276;2023-05-01T11:53:12;101317.69;;;12.67;52.98
74079;BME280;62437;51.544;-3.276;2023-05-01T11:55:37;101312.22;;;13.22;52.06
74079;BME280;62437;51.544;-3.276;2023-05-01T11:58:01;101309.00;;;13.88;53.31
74079;BME280;62437;51.544;-3.276;2023-05-01T12:00:28;101310.89;;;13.10;52.33
74079;BME280;62437;51.544;-3.276;2023-05-01T12:02:57;101312.63;;;13.46;51.91
74079;BME280;62437;51.544;-3.276;2023-05-01T12:05:18;101311.82;;;11.99;52.20
74079;BME280;62437;51.544;-3.276;2023-05-01T12:07:44;101304.38;;;13.12;54.53
74079;BME280;62437;51.544;-3.276;2023-05-01T12:10:09;101313.68;;;13.00;54.47
74079;BME280;62437;51.544;-3.276;2023-05-01T12:12:36;101312.48;;;13.68;53.45
74079;BME280;62437;51.544;-3.276;2023-05-01T12:15:01;101313.53;;;11.95;52.13
74079;BME280;62437;51.544;-3.276;2023-05-01T12:17:26;101313.63;;;13.04;52.58
74079;BME280;62437;51.544;-3.276;2023-05-01T12:19:52;101308.75;;;13.08;55.00
74079;BME280;62437;51.544;-3.276;2023-05-01T12:22:17;101302.42;;;13.15;51.20
74079;BME280;62437;51.544;-3.276;2023-05-01T12:24:49;101302.72;;;13.48;51.42
74079;BME280;62437;51.544;-3.276;2023-05-01T12:27:09;101305.17;;;13.44;51.77
74079;BME280;62437;51.544;-3.276;2023-05-01T12:29:40;101300.00;;;13.62;53.38
74079;BME280;62437;51.544;-3.276;2023-05-01T12:32:02;101308.08;;;12.81;51.52
74079;BME280;62437;51.544;-3.276;2023-05-01T12:34:29;101308.26;;;12.34;51.42
74079;BME280;62437;51.544;-3.276;2023-05-01T12:36:53;101302.30;;;12.97;51.96
74079;BME280;62437;51.544;-3.276;2023-05-01T12:39:17;101305.53;;;12.75;51.04
74079;BME280;62437;51.544;-3.276;2023-05-01T12:41:44;101308.69;;;13.28;53.20
74079;BME280;62437;51.544;-3.276;2023-05-01T12:44:17;101308.71;;;13.73;51.00
74079;BME280;62437;51.544;-3.276;2023-05-01T12:46:33;101312.54;;;13.33;49.95
74079;BME280;62437;51.544;-3.276;2023-05-01T12:49:01;101319.75;;;13.48;50.48
74079;BME280;62437;51.544;-3.276;2023-05-01T12:51:24;101312.03;;;12.85;50.50
74079;BME280;62437;51.544;-3.276;2023-05-01T12:53:50;101308.12;;;13.46;52.76
74079;BME280;62437;51.544;-3.276;2023-05-01T12:56:22;101322.37;;;13.31;51.82
74079;BME280;62437;51.544;-3.276;2023-05-01T12:58:41;101322.43;;;13.00;51.35
74079;BME280;62437;51.544;-3.276;2023-05-01T13:01:07;101318.73;;;12.67;50.80
74079;BME280;62437;51.544;-3.276;2023-05-01T13:03:33;101312.58;;;14.70;54.88
74079;BME280;62437;51.544;-3.276;2023-05-01T13:06:00;101306.18;;;13.92;52.03